ESGR/KVB METAR and TAF weather

Enter ICAO airport designator
Station Type Date Time Source
ESGR METAR 2020/07/04 01:20 UTC NOAA

ESGR 040120Z AUTO /////KT 9999 -RA FEW017/// BKN024/// BKN033/// 12/12 Q1004


Station Type Date Time Source
ESGR Decoded METAR 2020/07/04 01:20 UTC NOAA

Skovde Flygplats, Sweden (ESGR) 58-27N 013-58E 105M
Jul 03, 2020 - 09:20 PM EDT / 2020.07.04 0120 UTC
Visibility: greater than 7 mile(s):0
Sky conditions: mostly cloudy
Weather: light rain
Temperature: 53 F (12 C)
Dew Point: 53 F (12 C)
Relative Humidity: 100%
Pressure (altimeter): 29.65 in. Hg (1004 hPa)
ob: ESGR 040120Z AUTO /////KT 9999 -RA FEW017/// BKN024/// BKN033/// 12/12 Q1004
cycle: 1

Station Type Date Time Source
ESGR TAF 2009/06/28 04:50 UTC NOAA

METAR ESGR 280450Z AUTO VRB02KT 9999NDV NCD 17/12 Q1020

Example: see airport list